createdAt,value
2023-01-09T00:01:32.066Z,0.70
2023-01-09T00:03:58.969Z,0.90
2023-01-09T00:06:25.902Z,0.80
2023-01-09T00:08:52.771Z,0.75
2023-01-09T00:11:20.386Z,0.98
2023-01-09T00:13:47.350Z,0.90
2023-01-09T00:16:16.091Z,1.10
2023-01-09T00:18:43.171Z,1.30
2023-01-09T00:21:12.475Z,0.90
2023-01-09T00:23:39.369Z,0.93
2023-01-09T00:26:10.275Z,0.93
2023-01-09T00:28:38.022Z,1.00
2023-01-09T00:31:08.154Z,1.15
2023-01-09T00:33:40.930Z,0.90
2023-01-09T00:36:08.346Z,1.00
2023-01-09T00:38:37.220Z,0.82
2023-01-09T00:41:09.901Z,1.25
2023-01-09T00:43:49.084Z,1.40
2023-01-09T00:46:20.576Z,1.23
2023-01-09T00:48:49.719Z,1.20
2023-01-09T00:51:19.653Z,1.30
2023-01-09T00:53:49.144Z,1.05
2023-01-09T00:56:19.498Z,1.30
2023-01-09T00:58:47.365Z,1.02
2023-01-09T01:01:14.309Z,1.10
2023-01-09T01:03:41.467Z,1.20
2023-01-09T01:06:27.646Z,1.20
2023-01-09T01:08:55.822Z,1.40
2023-01-09T01:11:23.619Z,1.20
2023-01-09T01:13:51.016Z,1.00
2023-01-09T01:16:18.428Z,1.38
2023-01-09T01:18:45.693Z,1.30
2023-01-09T01:21:15.037Z,1.58
2023-01-09T01:23:42.661Z,1.10
2023-01-09T01:26:15.634Z,1.20
2023-01-09T01:28:43.203Z,0.90
2023-01-09T01:31:18.835Z,1.60
2023-01-09T01:33:45.667Z,1.25
2023-01-09T01:36:12.588Z,1.25
2023-01-09T01:38:39.376Z,1.15
2023-01-09T01:41:07.055Z,1.40
2023-01-09T01:43:56.243Z,1.25
2023-01-09T01:46:24.640Z,1.13
2023-01-09T01:49:12.846Z,1.40
2023-01-09T01:51:46.527Z,0.90
2023-01-09T01:54:21.839Z,1.17
2023-01-09T01:56:56.884Z,1.58
2023-01-09T01:59:34.836Z,1.40
2023-01-09T02:02:03.422Z,1.40
2023-01-09T02:04:35.282Z,1.80
2023-01-09T02:07:08.701Z,1.67
2023-01-09T02:09:37.526Z,2.00
2023-01-09T02:12:26.929Z,1.98
2023-01-09T02:15:09.369Z,1.73
2023-01-09T02:18:20.136Z,2.30
2023-01-09T02:21:21.228Z,2.00
2023-01-09T02:24:21.704Z,2.35
2023-01-09T02:27:38.863Z,2.75
2023-01-09T02:30:39.649Z,2.60
2023-01-09T02:33:33.560Z,3.00
2023-01-09T02:36:03.078Z,3.42
2023-01-09T02:38:45.083Z,2.85
2023-01-09T02:41:23.641Z,2.80
2023-01-09T02:44:11.642Z,3.75
2023-01-09T02:46:38.514Z,3.65
2023-01-09T02:49:05.448Z,3.22
2023-01-09T02:51:54.060Z,3.40
2023-01-09T02:55:07.595Z,3.53
2023-01-09T02:57:55.572Z,2.78
2023-01-09T03:00:37.053Z,3.22
2023-01-09T03:03:37.668Z,2.97
2023-01-09T03:06:32.971Z,3.50
2023-01-09T03:09:11.960Z,3.00
2023-01-09T03:11:51.011Z,2.90
2023-01-09T03:14:24.053Z,2.90
2023-01-09T03:16:58.359Z,3.00
2023-01-09T03:19:31.032Z,2.70
2023-01-09T03:22:00.116Z,3.00
2023-01-09T03:24:26.992Z,2.90
2023-01-09T03:26:56.330Z,2.90
2023-01-09T03:29:23.245Z,2.90
2023-01-09T03:31:50.283Z,2.97
2023-01-09T03:34:17.169Z,2.83
2023-01-09T03:36:44.030Z,3.20
2023-01-09T03:39:10.834Z,2.75
2023-01-09T03:41:37.714Z,2.85
2023-01-09T03:44:04.589Z,3.10
2023-01-09T03:46:31.423Z,2.72
2023-01-09T03:48:58.278Z,2.80
2023-01-09T03:51:25.155Z,3.30
2023-01-09T03:53:51.921Z,2.83
2023-01-09T03:56:18.725Z,2.50
2023-01-09T03:58:45.549Z,2.80
2023-01-09T04:01:12.872Z,2.88
2023-01-09T04:03:40.251Z,2.72
2023-01-09T04:06:08.011Z,2.78
2023-01-09T04:08:34.947Z,3.03
2023-01-09T04:11:01.697Z,3.20
2023-01-09T04:13:28.579Z,2.50
2023-01-09T04:15:55.436Z,2.72
2023-01-09T04:18:22.361Z,3.03
2023-01-09T04:20:49.592Z,2.63
2023-01-09T04:23:17.135Z,2.83
2023-01-09T04:25:44.261Z,2.65
2023-01-09T04:28:11.040Z,2.10
2023-01-09T04:30:38.009Z,2.40
2023-01-09T04:33:04.857Z,2.35
2023-01-09T04:35:31.655Z,2.40
2023-01-09T04:37:58.643Z,2.47
2023-01-09T04:40:25.469Z,2.63
2023-01-09T04:42:52.379Z,1.92
2023-01-09T04:45:19.216Z,2.30
2023-01-09T04:47:46.064Z,2.35
2023-01-09T04:50:13.437Z,1.88
2023-01-09T04:52:40.377Z,2.03
2023-01-09T04:55:08.863Z,1.95
2023-01-09T04:57:36.615Z,1.88
2023-01-09T05:00:09.599Z,1.67
2023-01-09T05:02:37.321Z,1.48
2023-01-09T05:05:07.386Z,1.80
2023-01-09T05:07:35.536Z,1.48
2023-01-09T05:10:04.889Z,1.88
2023-01-09T05:12:32.110Z,1.60
2023-01-09T05:14:59.040Z,1.60
2023-01-09T05:17:26.803Z,1.90
2023-01-09T05:19:53.676Z,1.35
2023-01-09T05:22:20.524Z,1.20
2023-01-09T05:24:47.456Z,1.70
2023-01-09T05:27:14.252Z,1.13
2023-01-09T05:29:41.016Z,1.58
2023-01-09T05:32:07.910Z,1.60
2023-01-09T05:34:34.755Z,1.33
2023-01-09T05:37:01.689Z,1.48
2023-01-09T05:39:28.634Z,1.67
2023-01-09T05:41:55.648Z,1.35
2023-01-09T05:44:22.520Z,1.33
2023-01-09T05:46:49.404Z,1.98
2023-01-09T05:49:16.271Z,1.25
2023-01-09T05:51:43.058Z,1.25
2023-01-09T05:54:09.822Z,1.50
2023-01-09T05:56:36.543Z,1.40
2023-01-09T05:59:03.459Z,1.15
2023-01-09T06:01:30.334Z,1.35
2023-01-09T06:03:57.235Z,2.28
2023-01-09T06:06:24.273Z,1.48
2023-01-09T06:08:51.321Z,1.17
2023-01-09T06:11:18.358Z,1.70
2023-01-09T06:13:45.308Z,1.35
2023-01-09T06:16:13.892Z,1.65
2023-01-09T06:18:40.882Z,1.63
2023-01-09T06:21:07.861Z,1.48
2023-01-09T06:23:34.699Z,1.27
2023-01-09T06:26:01.582Z,1.27
2023-01-09T06:28:28.874Z,1.45
2023-01-09T06:30:55.771Z,1.40
2023-01-09T06:33:22.842Z,1.40
2023-01-09T06:35:49.698Z,1.70
2023-01-09T06:38:16.558Z,1.52
2023-01-09T06:40:43.447Z,1.70
2023-01-09T06:43:10.394Z,1.60
2023-01-09T06:45:37.215Z,1.67
2023-01-09T06:48:04.279Z,1.77
2023-01-09T06:50:31.105Z,1.98
2023-01-09T06:52:58.086Z,1.60
2023-01-09T06:55:26.338Z,1.52
2023-01-09T06:57:53.612Z,1.70
2023-01-09T07:00:21.592Z,1.60
2023-01-09T07:02:49.334Z,1.80
2023-01-09T07:05:16.333Z,1.60
2023-01-09T07:07:43.221Z,1.80
2023-01-09T07:10:11.410Z,2.30
2023-01-09T07:12:38.280Z,1.42
2023-01-09T07:15:05.915Z,2.10
2023-01-09T07:17:32.877Z,2.03
2023-01-09T07:20:00.768Z,2.30
2023-01-09T07:22:27.859Z,2.00
2023-01-09T07:24:54.681Z,2.00
2023-01-09T07:27:22.230Z,2.00
2023-01-09T07:29:50.080Z,2.17
2023-01-09T07:32:17.497Z,2.38
2023-01-09T07:34:44.394Z,2.50
2023-01-09T07:37:11.299Z,2.35
2023-01-09T07:39:38.194Z,2.70
2023-01-09T07:42:05.067Z,3.00
2023-01-09T07:44:33.045Z,2.80
2023-01-09T07:46:59.933Z,3.10
2023-01-09T07:49:27.041Z,2.67
2023-01-09T07:51:55.457Z,2.60
2023-01-09T07:54:22.543Z,2.60
2023-01-09T07:56:49.370Z,2.55
2023-01-09T07:59:16.292Z,2.30
2023-01-09T08:01:43.272Z,2.30
2023-01-09T08:04:10.588Z,2.17
2023-01-09T08:06:37.426Z,2.28
2023-01-09T08:09:04.264Z,1.92
2023-01-09T08:11:32.279Z,1.80
2023-01-09T08:13:59.093Z,1.60
2023-01-09T08:16:26.076Z,1.40
2023-01-09T08:18:52.873Z,1.23
2023-01-09T08:21:19.746Z,1.23
2023-01-09T08:23:46.786Z,0.77
2023-01-09T08:26:13.762Z,0.88
2023-01-09T08:28:40.615Z,0.80
2023-01-09T08:31:07.608Z,0.60
2023-01-09T08:33:34.653Z,0.80
2023-01-09T08:36:01.540Z,0.98
2023-01-09T08:38:28.470Z,0.80
2023-01-09T08:40:55.411Z,0.90
2023-01-09T08:43:40.744Z,1.25
2023-01-09T08:46:39.779Z,0.95
2023-01-09T08:49:06.560Z,0.82
2023-01-09T08:51:33.380Z,0.90
2023-01-09T08:54:00.254Z,1.38
2023-01-09T08:56:27.224Z,0.73
2023-01-09T08:58:54.207Z,1.15
2023-01-09T09:01:21.013Z,1.20
2023-01-09T09:03:48.256Z,0.80
2023-01-09T09:06:15.106Z,0.85
2023-01-09T09:08:41.912Z,0.82
2023-01-09T09:11:08.793Z,1.33
2023-01-09T09:13:35.620Z,1.20
2023-01-09T09:16:02.515Z,0.90
2023-01-09T09:18:29.418Z,0.80
2023-01-09T09:20:56.249Z,1.95
2023-01-09T09:23:23.602Z,1.00
2023-01-09T09:25:50.428Z,1.23
2023-01-09T09:28:17.321Z,1.05
2023-01-09T09:30:44.195Z,1.35
2023-01-09T09:33:10.958Z,1.10
2023-01-09T09:35:37.757Z,1.45
2023-01-09T09:38:05.813Z,5.95
2023-01-09T09:41:30.501Z,2.20
2023-01-09T09:44:53.354Z,2.00
2023-01-09T09:48:19.393Z,1.38
2023-01-09T09:51:11.388Z,1.80
2023-01-09T09:53:53.306Z,2.03
2023-01-09T09:56:23.821Z,1.17
2023-01-09T09:59:03.705Z,1.90
2023-01-09T10:01:59.659Z,1.20
2023-01-09T10:04:32.546Z,1.80
2023-01-09T10:07:15.513Z,1.88
2023-01-09T10:09:54.245Z,1.50
2023-01-09T10:12:33.269Z,2.13
2023-01-09T10:15:13.912Z,1.80
2023-01-09T10:18:16.566Z,2.00
2023-01-09T10:20:59.979Z,1.70
2023-01-09T10:23:59.658Z,2.10
2023-01-09T10:26:50.879Z,1.48
2023-01-09T10:29:41.672Z,1.27
2023-01-09T10:32:44.504Z,1.27
2023-01-09T10:35:47.988Z,1.65
2023-01-09T10:38:25.421Z,1.67
2023-01-09T10:41:04.338Z,1.30
2023-01-09T10:43:50.926Z,1.30
2023-01-09T10:46:41.812Z,1.50
2023-01-09T10:49:16.694Z,1.95
2023-01-09T10:51:49.264Z,2.10
2023-01-09T10:54:26.144Z,1.48
2023-01-09T10:57:13.005Z,1.60
2023-01-09T10:59:41.725Z,1.00
2023-01-09T11:02:32.796Z,1.38
2023-01-09T11:04:59.885Z,1.40
2023-01-09T11:07:37.532Z,1.40
2023-01-09T11:10:13.480Z,1.27
2023-01-09T11:12:40.960Z,1.50
2023-01-09T11:15:17.037Z,1.75
2023-01-09T11:17:44.729Z,2.10
2023-01-09T11:20:22.658Z,1.00
2023-01-09T11:22:56.350Z,1.73
2023-01-09T11:25:28.555Z,1.60
2023-01-09T11:28:08.204Z,2.53
2023-01-09T11:30:37.767Z,1.92
2023-01-09T11:33:24.507Z,2.50
2023-01-09T11:36:10.755Z,2.08
2023-01-09T11:38:59.773Z,2.45
2023-01-09T11:41:35.094Z,1.90
2023-01-09T11:44:04.591Z,1.95
2023-01-09T11:46:42.293Z,2.15
2023-01-09T11:49:15.383Z,2.10
2023-01-09T11:51:43.637Z,2.22
2023-01-09T11:54:32.748Z,2.63
2023-01-09T11:57:00.407Z,1.88
2023-01-09T11:59:31.119Z,2.00
2023-01-09T12:02:24.670Z,2.28
2023-01-09T12:05:27.894Z,2.10
2023-01-09T12:08:05.932Z,1.60
2023-01-09T12:11:06.205Z,1.98
2023-01-09T12:14:12.909Z,2.05
2023-01-09T12:17:06.625Z,1.95
2023-01-09T12:20:16.467Z,2.13
2023-01-09T12:22:43.275Z,2.28
2023-01-09T12:25:44.115Z,2.00
2023-01-09T12:28:33.315Z,2.35
2023-01-09T12:31:24.539Z,2.17
2023-01-09T12:34:16.043Z,1.80
2023-01-09T12:37:29.556Z,2.30
2023-01-09T12:40:17.231Z,2.85
2023-01-09T12:43:15.922Z,2.22
2023-01-09T12:46:10.228Z,1.73
2023-01-09T12:49:20.781Z,2.72
2023-01-09T12:51:55.260Z,1.70
2023-01-09T12:54:55.797Z,2.95
2023-01-09T12:57:40.729Z,1.77
2023-01-09T13:00:27.280Z,1.65
2023-01-09T13:03:12.938Z,1.92
2023-01-09T13:05:53.259Z,3.05
2023-01-09T13:08:42.234Z,1.70
2023-01-09T13:11:48.899Z,1.65
2023-01-09T13:14:33.836Z,1.90
2023-01-09T13:17:06.816Z,2.22
2023-01-09T13:19:39.916Z,1.52
2023-01-09T13:22:07.917Z,2.17
2023-01-09T13:25:08.102Z,1.60
2023-01-09T13:27:44.167Z,1.67
2023-01-09T13:30:11.259Z,1.55
2023-01-09T13:32:55.145Z,2.25
2023-01-09T13:35:22.114Z,1.60
2023-01-09T13:37:54.173Z,1.83
2023-01-09T13:40:20.921Z,2.55
2023-01-09T13:43:00.982Z,2.03
2023-01-09T13:45:32.623Z,2.42
2023-01-09T13:48:14.448Z,1.90
2023-01-09T13:50:42.417Z,1.95
2023-01-09T13:53:18.089Z,1.70
2023-01-09T13:56:03.266Z,1.75
2023-01-09T13:58:51.834Z,2.00
2023-01-09T14:01:25.145Z,1.80
2023-01-09T14:04:21.193Z,2.33
2023-01-09T14:07:21.415Z,2.60
2023-01-09T14:10:28.923Z,2.20
2023-01-09T14:12:57.939Z,1.90
2023-01-09T14:15:39.363Z,2.10
2023-01-09T14:18:17.278Z,2.17
2023-01-09T14:20:56.383Z,1.67
2023-01-09T14:23:46.137Z,2.17
2023-01-09T14:26:25.726Z,2.08
2023-01-09T14:29:39.262Z,2.03
2023-01-09T14:32:24.902Z,2.22
2023-01-09T14:35:17.659Z,1.80
2023-01-09T14:37:59.910Z,2.17
2023-01-09T14:40:27.493Z,2.05
2023-01-09T14:43:00.978Z,1.90
2023-01-09T14:45:28.068Z,1.77
2023-01-09T14:48:00.452Z,1.98
2023-01-09T14:50:36.785Z,2.05
2023-01-09T14:53:26.498Z,2.67
2023-01-09T14:55:59.690Z,2.08
2023-01-09T14:58:35.178Z,1.92
2023-01-09T15:01:15.998Z,1.92
2023-01-09T15:03:53.642Z,1.88
2023-01-09T15:06:29.673Z,1.90
2023-01-09T15:09:08.630Z,1.88
2023-01-09T15:11:39.663Z,2.00
2023-01-09T15:14:10.191Z,2.78
2023-01-09T15:16:37.285Z,1.83
2023-01-09T15:19:08.514Z,2.30
2023-01-09T15:21:35.414Z,2.05
2023-01-09T15:24:38.373Z,1.63
2023-01-09T15:27:15.852Z,1.90
2023-01-09T15:29:42.742Z,1.58
2023-01-09T15:32:30.913Z,1.48
2023-01-09T15:34:58.337Z,2.30
2023-01-09T15:37:30.444Z,2.15
2023-01-09T15:40:04.756Z,2.15
2023-01-09T15:42:57.531Z,2.92
2023-01-09T15:45:41.907Z,1.70
2023-01-09T15:48:34.663Z,1.88
2023-01-09T15:51:18.312Z,1.73
2023-01-09T15:53:50.232Z,1.40
2023-01-09T15:56:23.916Z,2.38
2023-01-09T15:58:54.809Z,1.95
2023-01-09T16:01:31.589Z,2.72
2023-01-09T16:04:12.490Z,1.65
2023-01-09T16:06:50.772Z,1.88
2023-01-09T16:09:37.789Z,1.65
2023-01-09T16:12:05.135Z,2.38
2023-01-09T16:14:39.702Z,1.52
2023-01-09T16:17:16.104Z,1.73
2023-01-09T16:19:51.589Z,1.88
2023-01-09T16:22:34.058Z,1.80
2023-01-09T16:25:22.840Z,1.63
2023-01-09T16:28:24.355Z,1.77
2023-01-09T16:31:16.085Z,1.83
2023-01-09T16:33:49.930Z,1.83
2023-01-09T16:36:17.185Z,1.65
2023-01-09T16:38:44.480Z,1.85
2023-01-09T16:41:40.432Z,2.30
2023-01-09T16:44:09.900Z,2.35
2023-01-09T16:46:41.643Z,1.85
2023-01-09T16:49:24.049Z,1.90
2023-01-09T16:51:51.620Z,2.75
2023-01-09T16:54:19.940Z,1.90
2023-01-09T16:56:54.053Z,1.90
2023-01-09T16:59:27.476Z,2.95
2023-01-09T17:01:55.429Z,2.47
2023-01-09T17:04:26.058Z,1.95
2023-01-09T17:06:52.993Z,2.50
2023-01-09T17:09:23.106Z,2.25
2023-01-09T17:11:50.845Z,2.33
2023-01-09T17:14:17.730Z,2.15
2023-01-09T17:16:47.472Z,2.00
2023-01-09T17:19:19.721Z,2.67
2023-01-09T17:21:47.071Z,3.17
2023-01-09T17:24:32.995Z,2.75
2023-01-09T17:27:20.629Z,2.10
2023-01-09T17:29:48.446Z,2.58
2023-01-09T17:32:17.228Z,2.22
2023-01-09T17:34:44.440Z,2.03
2023-01-09T17:37:17.070Z,1.90
2023-01-09T17:39:45.162Z,2.40
2023-01-09T17:42:12.131Z,2.00
2023-01-09T17:44:38.985Z,1.60
2023-01-09T17:47:07.158Z,2.10
2023-01-09T17:49:34.270Z,2.08
2023-01-09T17:52:01.141Z,2.05
2023-01-09T17:54:28.088Z,2.13
2023-01-09T17:56:55.145Z,1.75
2023-01-09T17:59:22.087Z,2.00
2023-01-09T18:01:49.037Z,1.80
2023-01-09T18:04:16.000Z,1.63
2023-01-09T18:06:43.101Z,1.92
2023-01-09T18:09:17.192Z,1.83
2023-01-09T18:11:44.944Z,1.67
2023-01-09T18:14:13.833Z,1.63
2023-01-09T18:16:40.937Z,2.47
2023-01-09T18:19:07.875Z,1.48
2023-01-09T18:21:34.722Z,1.63
2023-01-09T18:24:01.897Z,1.70
2023-01-09T18:26:28.761Z,1.75
2023-01-09T18:28:59.024Z,2.10
2023-01-09T18:31:28.042Z,1.88
2023-01-09T18:33:58.534Z,1.63
2023-01-09T18:36:29.670Z,1.50
2023-01-09T18:38:59.556Z,2.10
2023-01-09T18:41:27.896Z,2.88
2023-01-09T18:44:00.675Z,1.40
2023-01-09T18:46:31.857Z,2.40
2023-01-09T18:49:03.269Z,1.75
2023-01-09T18:51:32.276Z,2.22
2023-01-09T18:53:59.140Z,2.45
2023-01-09T18:56:26.483Z,2.38
2023-01-09T18:58:57.715Z,2.05
2023-01-09T19:01:26.736Z,2.67
2023-01-09T19:03:53.818Z,1.95
2023-01-09T19:06:21.369Z,2.40
2023-01-09T19:08:48.542Z,2.20
2023-01-09T19:11:15.642Z,2.88
2023-01-09T19:13:42.460Z,3.58
2023-01-09T19:16:10.918Z,3.05
2023-01-09T19:18:41.190Z,3.42
2023-01-09T19:21:19.122Z,2.75
2023-01-09T19:23:47.378Z,2.40
2023-01-09T19:26:21.484Z,2.17
2023-01-09T19:28:48.465Z,2.67
2023-01-09T19:31:16.919Z,2.45
2023-01-09T19:33:45.247Z,2.90
2023-01-09T19:36:12.690Z,2.55
2023-01-09T19:38:39.729Z,3.33
2023-01-09T19:41:17.733Z,3.83
2023-01-09T19:43:46.037Z,3.97
2023-01-09T19:46:16.739Z,3.38
2023-01-09T19:48:43.763Z,3.53
2023-01-09T19:51:12.755Z,3.47
2023-01-09T19:53:40.099Z,4.00
2023-01-09T19:56:13.273Z,2.60
2023-01-09T19:58:42.447Z,3.22
2023-01-09T20:01:16.863Z,3.30
2023-01-09T20:03:46.599Z,2.80
2023-01-09T20:06:18.969Z,3.08
2023-01-09T20:08:47.753Z,3.72
2023-01-09T20:11:15.731Z,2.90
2023-01-09T20:13:43.580Z,2.70
2023-01-09T20:16:17.669Z,3.13
2023-01-09T20:18:44.488Z,2.80
2023-01-09T20:21:11.311Z,3.60
2023-01-09T20:23:38.174Z,2.92
2023-01-09T20:26:05.108Z,3.45
2023-01-09T20:28:32.047Z,3.03
2023-01-09T20:30:59.687Z,4.00
2023-01-09T20:33:26.748Z,3.28
2023-01-09T20:35:53.639Z,3.55
2023-01-09T20:38:20.459Z,3.10
2023-01-09T20:40:47.446Z,2.90
2023-01-09T20:43:14.312Z,2.83
2023-01-09T20:45:41.350Z,2.22
2023-01-09T20:48:10.931Z,2.53
2023-01-09T20:50:38.339Z,2.40
2023-01-09T20:53:07.742Z,2.67
2023-01-09T20:55:34.878Z,3.00
2023-01-09T20:58:01.686Z,4.05
2023-01-09T21:00:31.946Z,3.38
2023-01-09T21:02:59.392Z,2.40
2023-01-09T21:05:26.305Z,2.65
2023-01-09T21:07:53.252Z,2.50
2023-01-09T21:10:20.040Z,2.78
2023-01-09T21:12:46.885Z,2.88
2023-01-09T21:15:16.624Z,2.50
2023-01-09T21:17:43.846Z,2.53
2023-01-09T21:20:14.945Z,3.47
2023-01-09T21:22:42.290Z,1.98
2023-01-09T21:25:10.373Z,2.70
2023-01-09T21:27:42.963Z,2.42
2023-01-09T21:30:11.323Z,2.72
2023-01-09T21:32:38.504Z,2.45
2023-01-09T21:35:06.769Z,2.88
2023-01-09T21:37:37.113Z,2.03
2023-01-09T21:40:08.815Z,2.78
2023-01-09T21:42:54.422Z,1.83
2023-01-09T21:45:39.980Z,2.00
2023-01-09T21:48:07.224Z,2.95
2023-01-09T21:50:35.493Z,2.53
2023-01-09T21:53:03.001Z,2.78
2023-01-09T21:55:32.041Z,2.40
2023-01-09T21:58:03.449Z,2.47
2023-01-09T22:00:30.870Z,2.85
2023-01-09T22:02:58.979Z,2.38
2023-01-09T22:05:27.303Z,2.50
2023-01-09T22:07:56.281Z,2.45
2023-01-09T22:10:23.145Z,2.58
2023-01-09T22:13:10.394Z,2.40
2023-01-09T22:15:37.315Z,2.25
2023-01-09T22:18:04.344Z,2.22
2023-01-09T22:20:31.179Z,2.67
2023-01-09T22:22:58.130Z,3.33
2023-01-09T22:25:24.979Z,2.42
2023-01-09T22:27:51.755Z,2.17
2023-01-09T22:30:18.651Z,2.53
2023-01-09T22:32:45.468Z,2.70
2023-01-09T22:35:12.321Z,2.83
2023-01-09T22:37:39.133Z,2.70
2023-01-09T22:40:06.603Z,2.00
2023-01-09T22:42:33.382Z,2.40
2023-01-09T22:45:00.161Z,2.40
2023-01-09T22:47:26.912Z,2.10
2023-01-09T22:49:54.039Z,2.72
2023-01-09T22:52:21.776Z,2.17
2023-01-09T22:54:48.677Z,3.05
2023-01-09T22:57:15.503Z,2.95
2023-01-09T22:59:42.345Z,1.90
2023-01-09T23:02:09.265Z,2.20
2023-01-09T23:04:36.177Z,2.90
2023-01-09T23:07:03.067Z,2.33
2023-01-09T23:09:29.829Z,2.20
2023-01-09T23:12:02.477Z,2.47
2023-01-09T23:14:36.596Z,2.72
2023-01-09T23:17:06.725Z,2.67
2023-01-09T23:19:33.716Z,2.50
2023-01-09T23:22:02.218Z,2.60
2023-01-09T23:24:30.213Z,2.72
2023-01-09T23:26:57.645Z,2.58
2023-01-09T23:29:25.864Z,2.13
2023-01-09T23:31:53.782Z,2.55
2023-01-09T23:34:24.275Z,2.10
2023-01-09T23:36:52.244Z,1.75
2023-01-09T23:39:19.112Z,2.50
2023-01-09T23:42:04.721Z,2.30
2023-01-09T23:44:31.559Z,2.08
2023-01-09T23:46:58.512Z,2.10
2023-01-09T23:49:25.384Z,2.13
2023-01-09T23:51:52.153Z,2.42
2023-01-09T23:54:19.047Z,2.38
2023-01-09T23:56:45.824Z,3.00
2023-01-09T23:59:14.514Z,2.30
